This is the latest recevied weather packets stored in our database for station/object EA2BJM-15. If no packets are shown the sender has not sent any weather packets the latest 1 day(s).
| Time | Temp. | Humidity | Pressure | Rain* | Wind** | Luminosity | Snow |
|---|---|---|---|---|---|---|---|
| 1778087622 | 21.11° C | 23% | 1010.8 hPa | 0 mm | - | - | - |
| 1778085822 | 21.11° C | 23% | 1010.8 hPa | 0 mm | - | - | - |
| 1778082222 | 21.67° C | 23% | 1010.8 hPa | 0 mm | - | - | - |
| 1778081324 | 22.22° C | 22% | 1010.8 hPa | 0 mm | - | - | - |
| 1778079522 | 22.22° C | 22% | 1011.8 hPa | 0 mm | - | - | - |
| 1778078622 | 22.78° C | 22% | 1011.8 hPa | 0 mm | - | - | - |
| 1778076823 | 22.22° C | 22% | 1011.8 hPa | 0 mm | - | - | - |
| 1778075922 | 22.22° C | 22% | 1011.8 hPa | 0 mm | - | - | - |
| 1778074123 | 22.78° C | 22% | 1012.8 hPa | 0 mm | - | - | - |
| 1778073223 | 22.78° C | 22% | 1012.8 hPa | 0 mm | - | - | - |
| 1778071423 | 22.78° C | 23% | 1012.8 hPa | 0 mm | - | - | - |
| 1778070523 | 22.78° C | 22% | 1012.8 hPa | 0 mm | - | - | - |
| 1778066022 | 22.22° C | 24% | 1012.8 hPa | 0 mm | - | - | - |
| 1778065122 | 21.67° C | 24% | 1013.8 hPa | 0 mm | - | - | - |
| 1778064222 | 21.67° C | 25% | 1013.8 hPa | 0 mm | - | - | - |
| 1778063322 | 21.67° C | 25% | 1013.8 hPa | 0 mm | - | - | - |
| 1778061522 | 21.11° C | 26% | 1013.8 hPa | 0 mm | - | - | - |
| 1778057922 | 20° C | 29% | 1013.8 hPa | 0 mm | - | - | - |
| 1778057022 | 20° C | 32% | 1013.8 hPa | 0 mm | - | - | - |
| 1778055223 | 19.44° C | 34% | 1013.8 hPa | 0 mm | - | - | - |
| 1778054323 | 18.89° C | 34% | 1013.8 hPa | 0 mm | - | - | - |
| 1778051622 | 18.89° C | 35% | 1013.8 hPa | 0 mm | - | - | - |
| 1778049824 | 17.22° C | 40% | 1013.8 hPa | 0 mm | - | - | - |
| 1778048023 | 14.44° C | 49% | 1013.8 hPa | 0 mm | - | - | - |
| 1778047123 | 12.78° C | 59% | 1013.8 hPa | 0 mm | - | - | - |
* Rain latest hour (hover to see other rain measurements)
** Current wind speed in m/s (hover to see current wind gust speed)